sensor_id;sensor_type;location;lat;lon;timestamp;P1;durP1;ratioP1;P2;durP2;ratioP2
6842;SDS011;3460;52.028;8.916;2023-01-20T00:02:23;41.27;;;22.60;;
6842;SDS011;3460;52.028;8.916;2023-01-20T00:04:50;43.73;;;22.90;;
6842;SDS011;3460;52.028;8.916;2023-01-20T00:07:16;38.43;;;22.43;;
6842;SDS011;3460;52.028;8.916;2023-01-20T00:09:43;42.67;;;22.87;;
6842;SDS011;3460;52.028;8.916;2023-01-20T00:12:09;39.47;;;21.70;;
6842;SDS011;3460;52.028;8.916;2023-01-20T00:14:36;47.20;;;22.53;;
6842;SDS011;3460;52.028;8.916;2023-01-20T00:17:03;41.73;;;22.80;;
6842;SDS011;3460;52.028;8.916;2023-01-20T00:19:31;42.10;;;23.23;;
6842;SDS011;3460;52.028;8.916;2023-01-20T00:21:57;37.83;;;22.57;;
6842;SDS011;3460;52.028;8.916;2023-01-20T00:24:24;44.20;;;23.23;;
6842;SDS011;3460;52.028;8.916;2023-01-20T00:26:51;37.63;;;22.50;;
6842;SDS011;3460;52.028;8.916;2023-01-20T00:29:17;40.50;;;23.70;;
6842;SDS011;3460;52.028;8.916;2023-01-20T00:31:44;39.63;;;22.57;;
6842;SDS011;3460;52.028;8.916;2023-01-20T00:34:10;47.30;;;23.40;;
6842;SDS011;3460;52.028;8.916;2023-01-20T00:36:38;41.80;;;21.73;;
6842;SDS011;3460;52.028;8.916;2023-01-20T00:39:05;41.33;;;22.43;;
6842;SDS011;3460;52.028;8.916;2023-01-20T00:41:31;40.77;;;22.57;;
6842;SDS011;3460;52.028;8.916;2023-01-20T00:43:58;36.17;;;22.73;;
6842;SDS011;3460;52.028;8.916;2023-01-20T00:46:25;37.50;;;22.17;;
6842;SDS011;3460;52.028;8.916;2023-01-20T00:48:52;35.53;;;20.53;;
6842;SDS011;3460;52.028;8.916;2023-01-20T00:51:19;36.33;;;21.40;;
6842;SDS011;3460;52.028;8.916;2023-01-20T00:53:47;33.67;;;20.63;;
6842;SDS011;3460;52.028;8.916;2023-01-20T00:56:14;38.80;;;21.30;;
6842;SDS011;3460;52.028;8.916;2023-01-20T00:58:41;37.90;;;21.97;;
6842;SDS011;3460;52.028;8.916;2023-01-20T01:01:08;33.20;;;19.63;;
6842;SDS011;3460;52.028;8.916;2023-01-20T01:03:35;36.40;;;21.93;;
6842;SDS011;3460;52.028;8.916;2023-01-20T01:06:06;33.33;;;20.63;;
6842;SDS011;3460;52.028;8.916;2023-01-20T01:08:34;35.97;;;20.73;;
6842;SDS011;3460;52.028;8.916;2023-01-20T01:11:02;34.70;;;20.37;;
6842;SDS011;3460;52.028;8.916;2023-01-20T01:13:30;34.27;;;21.40;;
6842;SDS011;3460;52.028;8.916;2023-01-20T01:15:57;37.13;;;22.07;;
6842;SDS011;3460;52.028;8.916;2023-01-20T01:18:23;36.80;;;20.73;;
6842;SDS011;3460;52.028;8.916;2023-01-20T01:20:50;45.33;;;22.53;;
6842;SDS011;3460;52.028;8.916;2023-01-20T01:23:17;39.20;;;21.37;;
6842;SDS011;3460;52.028;8.916;2023-01-20T01:25:43;32.73;;;18.50;;
6842;SDS011;3460;52.028;8.916;2023-01-20T01:28:11;39.17;;;21.20;;
6842;SDS011;3460;52.028;8.916;2023-01-20T01:30:38;34.50;;;19.67;;
6842;SDS011;3460;52.028;8.916;2023-01-20T01:33:04;30.97;;;19.40;;
6842;SDS011;3460;52.028;8.916;2023-01-20T01:35:31;32.00;;;19.10;;
6842;SDS011;3460;52.028;8.916;2023-01-20T01:37:57;34.83;;;20.27;;
6842;SDS011;3460;52.028;8.916;2023-01-20T01:40:24;35.00;;;20.60;;
6842;SDS011;3460;52.028;8.916;2023-01-20T01:42:51;34.43;;;19.37;;
6842;SDS011;3460;52.028;8.916;2023-01-20T01:45:21;36.13;;;20.20;;
6842;SDS011;3460;52.028;8.916;2023-01-20T01:47:52;36.50;;;20.77;;
6842;SDS011;3460;52.028;8.916;2023-01-20T01:50:24;35.90;;;19.33;;
6842;SDS011;3460;52.028;8.916;2023-01-20T01:52:53;31.57;;;20.03;;
6842;SDS011;3460;52.028;8.916;2023-01-20T01:55:22;35.23;;;20.47;;
6842;SDS011;3460;52.028;8.916;2023-01-20T01:57:52;33.87;;;20.77;;
6842;SDS011;3460;52.028;8.916;2023-01-20T02:00:21;31.47;;;20.40;;
6842;SDS011;3460;52.028;8.916;2023-01-20T02:02:47;33.93;;;19.50;;
6842;SDS011;3460;52.028;8.916;2023-01-20T02:05:15;35.00;;;21.67;;
6842;SDS011;3460;52.028;8.916;2023-01-20T02:07:44;36.03;;;21.80;;
6842;SDS011;3460;52.028;8.916;2023-01-20T02:10:12;41.83;;;23.63;;
6842;SDS011;3460;52.028;8.916;2023-01-20T02:12:39;40.20;;;22.90;;
6842;SDS011;3460;52.028;8.916;2023-01-20T02:15:07;41.23;;;22.97;;
6842;SDS011;3460;52.028;8.916;2023-01-20T02:17:37;34.77;;;20.70;;
6842;SDS011;3460;52.028;8.916;2023-01-20T02:23:17;37.20;;;21.83;;
6842;SDS011;3460;52.028;8.916;2023-01-20T02:26:14;36.93;;;21.87;;
6842;SDS011;3460;52.028;8.916;2023-01-20T02:29:00;35.33;;;20.10;;
6842;SDS011;3460;52.028;8.916;2023-01-20T02:34:37;35.17;;;21.03;;
6842;SDS011;3460;52.028;8.916;2023-01-20T02:37:10;38.57;;;21.73;;
6842;SDS011;3460;52.028;8.916;2023-01-20T02:39:41;39.10;;;21.83;;
6842;SDS011;3460;52.028;8.916;2023-01-20T02:42:15;34.43;;;20.67;;
6842;SDS011;3460;52.028;8.916;2023-01-20T02:44:48;34.23;;;19.97;;
6842;SDS011;3460;52.028;8.916;2023-01-20T02:47:22;35.67;;;19.60;;
6842;SDS011;3460;52.028;8.916;2023-01-20T02:49:55;31.70;;;19.07;;
6842;SDS011;3460;52.028;8.916;2023-01-20T02:52:27;36.13;;;18.67;;
6842;SDS011;3460;52.028;8.916;2023-01-20T02:55:03;37.97;;;20.27;;
6842;SDS011;3460;52.028;8.916;2023-01-20T02:57:34;37.57;;;20.70;;
6842;SDS011;3460;52.028;8.916;2023-01-20T03:00:06;35.67;;;19.80;;
6842;SDS011;3460;52.028;8.916;2023-01-20T03:02:39;36.53;;;20.80;;
6842;SDS011;3460;52.028;8.916;2023-01-20T03:05:08;36.13;;;22.23;;
6842;SDS011;3460;52.028;8.916;2023-01-20T03:07:39;35.83;;;20.97;;
6842;SDS011;3460;52.028;8.916;2023-01-20T03:10:10;39.53;;;21.30;;
6842;SDS011;3460;52.028;8.916;2023-01-20T03:12:41;35.30;;;21.37;;
6842;SDS011;3460;52.028;8.916;2023-01-20T03:15:11;39.23;;;20.63;;
6842;SDS011;3460;52.028;8.916;2023-01-20T03:17:40;32.07;;;20.80;;
6842;SDS011;3460;52.028;8.916;2023-01-20T03:20:07;35.07;;;20.70;;
6842;SDS011;3460;52.028;8.916;2023-01-20T03:22:34;36.07;;;20.30;;
6842;SDS011;3460;52.028;8.916;2023-01-20T03:25:01;34.57;;;18.17;;
6842;SDS011;3460;52.028;8.916;2023-01-20T03:27:29;37.00;;;19.17;;
6842;SDS011;3460;52.028;8.916;2023-01-20T03:29:56;33.97;;;20.00;;
6842;SDS011;3460;52.028;8.916;2023-01-20T03:32:22;33.83;;;18.50;;
6842;SDS011;3460;52.028;8.916;2023-01-20T03:34:52;32.20;;;19.07;;
6842;SDS011;3460;52.028;8.916;2023-01-20T03:37:20;31.97;;;17.77;;
6842;SDS011;3460;52.028;8.916;2023-01-20T03:39:48;36.17;;;19.07;;
6842;SDS011;3460;52.028;8.916;2023-01-20T03:42:17;34.60;;;20.23;;
6842;SDS011;3460;52.028;8.916;2023-01-20T03:44:56;33.97;;;18.37;;
6842;SDS011;3460;52.028;8.916;2023-01-20T03:47:28;32.93;;;18.13;;
6842;SDS011;3460;52.028;8.916;2023-01-20T03:50:11;30.93;;;18.13;;
6842;SDS011;3460;52.028;8.916;2023-01-20T03:52:49;30.63;;;19.20;;
6842;SDS011;3460;52.028;8.916;2023-01-20T03:55:19;33.47;;;18.00;;
6842;SDS011;3460;52.028;8.916;2023-01-20T03:57:50;29.30;;;18.13;;
6842;SDS011;3460;52.028;8.916;2023-01-20T04:00:21;29.27;;;17.73;;
6842;SDS011;3460;52.028;8.916;2023-01-20T04:02:51;29.27;;;16.63;;
6842;SDS011;3460;52.028;8.916;2023-01-20T04:05:20;30.63;;;17.17;;
6842;SDS011;3460;52.028;8.916;2023-01-20T04:07:47;28.57;;;17.60;;
6842;SDS011;3460;52.028;8.916;2023-01-20T04:10:16;31.47;;;16.73;;
6842;SDS011;3460;52.028;8.916;2023-01-20T04:12:43;27.87;;;17.03;;
6842;SDS011;3460;52.028;8.916;2023-01-20T04:15:10;27.83;;;16.17;;
6842;SDS011;3460;52.028;8.916;2023-01-20T04:17:37;27.97;;;16.80;;
6842;SDS011;3460;52.028;8.916;2023-01-20T04:20:05;30.73;;;17.20;;
6842;SDS011;3460;52.028;8.916;2023-01-20T04:22:37;32.90;;;17.27;;
6842;SDS011;3460;52.028;8.916;2023-01-20T04:25:09;27.53;;;16.30;;
6842;SDS011;3460;52.028;8.916;2023-01-20T04:27:42;29.17;;;15.67;;
6842;SDS011;3460;52.028;8.916;2023-01-20T04:30:09;23.47;;;15.87;;
6842;SDS011;3460;52.028;8.916;2023-01-20T04:32:37;27.23;;;16.50;;
6842;SDS011;3460;52.028;8.916;2023-01-20T04:35:04;29.50;;;16.10;;
6842;SDS011;3460;52.028;8.916;2023-01-20T04:37:31;33.17;;;17.03;;
6842;SDS011;3460;52.028;8.916;2023-01-20T04:39:59;30.87;;;16.13;;
6842;SDS011;3460;52.028;8.916;2023-01-20T04:42:25;27.57;;;16.00;;
6842;SDS011;3460;52.028;8.916;2023-01-20T04:44:52;28.00;;;17.10;;
6842;SDS011;3460;52.028;8.916;2023-01-20T04:47:19;27.80;;;16.67;;
6842;SDS011;3460;52.028;8.916;2023-01-20T04:49:45;31.47;;;17.37;;
6842;SDS011;3460;52.028;8.916;2023-01-20T04:52:12;29.07;;;17.40;;
6842;SDS011;3460;52.028;8.916;2023-01-20T04:54:39;33.83;;;17.20;;
6842;SDS011;3460;52.028;8.916;2023-01-20T04:57:06;26.23;;;16.17;;
6842;SDS011;3460;52.028;8.916;2023-01-20T04:59:33;28.23;;;16.50;;
6842;SDS011;3460;52.028;8.916;2023-01-20T05:02:00;27.87;;;16.77;;
6842;SDS011;3460;52.028;8.916;2023-01-20T05:04:27;29.80;;;17.37;;
6842;SDS011;3460;52.028;8.916;2023-01-20T05:06:53;28.93;;;16.47;;
6842;SDS011;3460;52.028;8.916;2023-01-20T05:09:20;27.67;;;15.80;;
6842;SDS011;3460;52.028;8.916;2023-01-20T05:11:47;27.27;;;15.90;;
6842;SDS011;3460;52.028;8.916;2023-01-20T05:14:14;25.10;;;15.83;;
6842;SDS011;3460;52.028;8.916;2023-01-20T05:16:41;26.53;;;15.83;;
6842;SDS011;3460;52.028;8.916;2023-01-20T05:19:09;28.00;;;15.53;;
6842;SDS011;3460;52.028;8.916;2023-01-20T05:21:36;22.13;;;16.17;;
6842;SDS011;3460;52.028;8.916;2023-01-20T05:24:03;26.30;;;15.50;;
6842;SDS011;3460;52.028;8.916;2023-01-20T05:26:30;24.80;;;14.77;;
6842;SDS011;3460;52.028;8.916;2023-01-20T05:28:57;25.80;;;15.83;;
6842;SDS011;3460;52.028;8.916;2023-01-20T05:31:25;23.27;;;14.73;;
6842;SDS011;3460;52.028;8.916;2023-01-20T05:33:51;27.37;;;15.57;;
6842;SDS011;3460;52.028;8.916;2023-01-20T05:36:18;27.13;;;15.27;;
6842;SDS011;3460;52.028;8.916;2023-01-20T05:38:45;23.67;;;15.57;;
6842;SDS011;3460;52.028;8.916;2023-01-20T05:41:11;22.90;;;13.07;;
6842;SDS011;3460;52.028;8.916;2023-01-20T05:43:38;20.00;;;13.43;;
6842;SDS011;3460;52.028;8.916;2023-01-20T05:46:05;23.33;;;15.10;;
6842;SDS011;3460;52.028;8.916;2023-01-20T05:48:33;22.03;;;14.33;;
6842;SDS011;3460;52.028;8.916;2023-01-20T05:51:00;23.63;;;13.73;;
6842;SDS011;3460;52.028;8.916;2023-01-20T05:53:27;21.57;;;15.17;;
6842;SDS011;3460;52.028;8.916;2023-01-20T05:56:00;27.20;;;15.30;;
6842;SDS011;3460;52.028;8.916;2023-01-20T05:58:28;26.23;;;14.27;;
6842;SDS011;3460;52.028;8.916;2023-01-20T06:01:02;89.87;;;43.47;;
6842;SDS011;3460;52.028;8.916;2023-01-20T06:03:29;33.03;;;19.17;;
6842;SDS011;3460;52.028;8.916;2023-01-20T06:05:59;26.93;;;16.27;;
6842;SDS011;3460;52.028;8.916;2023-01-20T06:08:26;25.90;;;15.17;;
6842;SDS011;3460;52.028;8.916;2023-01-20T06:10:53;28.47;;;14.80;;
6842;SDS011;3460;52.028;8.916;2023-01-20T06:13:20;27.97;;;15.70;;
6842;SDS011;3460;52.028;8.916;2023-01-20T06:15:49;26.13;;;14.27;;
6842;SDS011;3460;52.028;8.916;2023-01-20T06:18:16;26.13;;;16.30;;
6842;SDS011;3460;52.028;8.916;2023-01-20T06:20:43;28.00;;;16.00;;
6842;SDS011;3460;52.028;8.916;2023-01-20T06:23:11;26.53;;;15.93;;
6842;SDS011;3460;52.028;8.916;2023-01-20T06:25:37;27.20;;;14.03;;
6842;SDS011;3460;52.028;8.916;2023-01-20T06:28:04;24.57;;;15.27;;
6842;SDS011;3460;52.028;8.916;2023-01-20T06:30:30;23.63;;;15.03;;
6842;SDS011;3460;52.028;8.916;2023-01-20T06:32:57;21.73;;;13.93;;
6842;SDS011;3460;52.028;8.916;2023-01-20T06:35:24;29.47;;;15.87;;
6842;SDS011;3460;52.028;8.916;2023-01-20T06:37:51;24.10;;;14.20;;
6842;SDS011;3460;52.028;8.916;2023-01-20T06:40:19;24.80;;;15.70;;
6842;SDS011;3460;52.028;8.916;2023-01-20T06:42:46;21.37;;;14.53;;
6842;SDS011;3460;52.028;8.916;2023-01-20T06:45:12;26.40;;;15.10;;
6842;SDS011;3460;52.028;8.916;2023-01-20T06:47:40;28.67;;;15.93;;
6842;SDS011;3460;52.028;8.916;2023-01-20T06:50:07;27.13;;;15.03;;
6842;SDS011;3460;52.028;8.916;2023-01-20T06:52:34;26.93;;;15.43;;
6842;SDS011;3460;52.028;8.916;2023-01-20T06:55:01;24.97;;;15.20;;
6842;SDS011;3460;52.028;8.916;2023-01-20T06:57:29;27.40;;;15.87;;
6842;SDS011;3460;52.028;8.916;2023-01-20T06:59:55;29.40;;;15.67;;
6842;SDS011;3460;52.028;8.916;2023-01-20T07:02:22;29.70;;;16.20;;
6842;SDS011;3460;52.028;8.916;2023-01-20T07:04:50;28.37;;;15.20;;
6842;SDS011;3460;52.028;8.916;2023-01-20T07:07:17;26.47;;;15.60;;
6842;SDS011;3460;52.028;8.916;2023-01-20T07:09:43;26.30;;;15.80;;
6842;SDS011;3460;52.028;8.916;2023-01-20T07:12:10;27.60;;;16.03;;
6842;SDS011;3460;52.028;8.916;2023-01-20T07:14:38;24.97;;;15.87;;
6842;SDS011;3460;52.028;8.916;2023-01-20T07:17:07;28.23;;;17.17;;
6842;SDS011;3460;52.028;8.916;2023-01-20T07:19:35;26.10;;;16.27;;
6842;SDS011;3460;52.028;8.916;2023-01-20T07:22:02;26.10;;;16.17;;
6842;SDS011;3460;52.028;8.916;2023-01-20T07:24:28;27.87;;;16.90;;
6842;SDS011;3460;52.028;8.916;2023-01-20T07:26:55;30.93;;;16.50;;
6842;SDS011;3460;52.028;8.916;2023-01-20T07:29:21;27.83;;;16.77;;
6842;SDS011;3460;52.028;8.916;2023-01-20T07:31:49;29.57;;;17.67;;
6842;SDS011;3460;52.028;8.916;2023-01-20T07:34:16;34.53;;;17.27;;
6842;SDS011;3460;52.028;8.916;2023-01-20T07:36:43;28.07;;;15.63;;
6842;SDS011;3460;52.028;8.916;2023-01-20T07:39:09;31.90;;;17.77;;
6842;SDS011;3460;52.028;8.916;2023-01-20T07:41:37;29.93;;;16.93;;
6842;SDS011;3460;52.028;8.916;2023-01-20T07:44:04;34.50;;;18.87;;
6842;SDS011;3460;52.028;8.916;2023-01-20T07:46:30;27.60;;;14.93;;
6842;SDS011;3460;52.028;8.916;2023-01-20T07:48:58;25.97;;;15.47;;
6842;SDS011;3460;52.028;8.916;2023-01-20T07:51:25;28.87;;;16.77;;
6842;SDS011;3460;52.028;8.916;2023-01-20T07:53:52;27.87;;;16.13;;
6842;SDS011;3460;52.028;8.916;2023-01-20T07:56:19;27.63;;;16.13;;
6842;SDS011;3460;52.028;8.916;2023-01-20T07:58:47;31.47;;;16.00;;
6842;SDS011;3460;52.028;8.916;2023-01-20T08:01:15;28.17;;;16.10;;
6842;SDS011;3460;52.028;8.916;2023-01-20T08:03:43;29.20;;;16.57;;
6842;SDS011;3460;52.028;8.916;2023-01-20T08:06:12;28.60;;;16.77;;
6842;SDS011;3460;52.028;8.916;2023-01-20T08:08:40;27.23;;;16.07;;
6842;SDS011;3460;52.028;8.916;2023-01-20T08:11:07;29.30;;;16.87;;
6842;SDS011;3460;52.028;8.916;2023-01-20T08:13:36;28.30;;;16.30;;
6842;SDS011;3460;52.028;8.916;2023-01-20T08:16:04;26.70;;;16.40;;
6842;SDS011;3460;52.028;8.916;2023-01-20T08:18:32;28.53;;;16.23;;
6842;SDS011;3460;52.028;8.916;2023-01-20T08:21:00;28.77;;;16.97;;
6842;SDS011;3460;52.028;8.916;2023-01-20T08:23:31;24.37;;;15.37;;
6842;SDS011;3460;52.028;8.916;2023-01-20T08:25:58;26.47;;;15.47;;
6842;SDS011;3460;52.028;8.916;2023-01-20T08:28:27;25.87;;;15.57;;
6842;SDS011;3460;52.028;8.916;2023-01-20T08:30:54;26.20;;;14.53;;
6842;SDS011;3460;52.028;8.916;2023-01-20T08:33:20;26.63;;;15.03;;
6842;SDS011;3460;52.028;8.916;2023-01-20T08:35:47;26.23;;;15.67;;
6842;SDS011;3460;52.028;8.916;2023-01-20T08:38:14;21.30;;;14.33;;
6842;SDS011;3460;52.028;8.916;2023-01-20T08:40:41;24.17;;;14.70;;
6842;SDS011;3460;52.028;8.916;2023-01-20T08:43:08;26.73;;;14.53;;
6842;SDS011;3460;52.028;8.916;2023-01-20T08:45:35;27.30;;;14.47;;
6842;SDS011;3460;52.028;8.916;2023-01-20T08:48:02;21.93;;;14.37;;
6842;SDS011;3460;52.028;8.916;2023-01-20T08:50:29;24.43;;;12.97;;
6842;SDS011;3460;52.028;8.916;2023-01-20T08:52:55;21.17;;;12.77;;
6842;SDS011;3460;52.028;8.916;2023-01-20T08:55:22;22.07;;;13.27;;
6842;SDS011;3460;52.028;8.916;2023-01-20T08:57:50;23.30;;;13.70;;
6842;SDS011;3460;52.028;8.916;2023-01-20T09:00:17;21.37;;;14.07;;
6842;SDS011;3460;52.028;8.916;2023-01-20T09:02:44;23.13;;;13.63;;
6842;SDS011;3460;52.028;8.916;2023-01-20T09:05:11;22.37;;;13.57;;
6842;SDS011;3460;52.028;8.916;2023-01-20T09:07:38;20.60;;;12.50;;
6842;SDS011;3460;52.028;8.916;2023-01-20T09:10:05;20.87;;;12.73;;
6842;SDS011;3460;52.028;8.916;2023-01-20T09:12:33;23.83;;;12.53;;
6842;SDS011;3460;52.028;8.916;2023-01-20T09:15:02;19.87;;;11.63;;
6842;SDS011;3460;52.028;8.916;2023-01-20T09:17:31;18.90;;;12.10;;
6842;SDS011;3460;52.028;8.916;2023-01-20T09:19:59;19.93;;;12.43;;
6842;SDS011;3460;52.028;8.916;2023-01-20T09:22:25;24.03;;;13.90;;
6842;SDS011;3460;52.028;8.916;2023-01-20T09:24:52;23.27;;;13.60;;
6842;SDS011;3460;52.028;8.916;2023-01-20T09:27:18;19.53;;;12.10;;
6842;SDS011;3460;52.028;8.916;2023-01-20T09:29:45;19.00;;;11.93;;
6842;SDS011;3460;52.028;8.916;2023-01-20T09:32:13;26.73;;;13.03;;
6842;SDS011;3460;52.028;8.916;2023-01-20T09:34:40;20.37;;;12.60;;
6842;SDS011;3460;52.028;8.916;2023-01-20T09:37:06;19.00;;;11.70;;
6842;SDS011;3460;52.028;8.916;2023-01-20T09:39:51;18.03;;;11.67;;
6842;SDS011;3460;52.028;8.916;2023-01-20T09:42:37;20.47;;;12.90;;
6842;SDS011;3460;52.028;8.916;2023-01-20T09:45:35;19.73;;;12.50;;
6842;SDS011;3460;52.028;8.916;2023-01-20T09:48:08;22.80;;;13.07;;
6842;SDS011;3460;52.028;8.916;2023-01-20T09:50:52;20.53;;;12.90;;
6842;SDS011;3460;52.028;8.916;2023-01-20T09:53:47;19.83;;;13.13;;
6842;SDS011;3460;52.028;8.916;2023-01-20T09:56:18;19.60;;;11.93;;
6842;SDS011;3460;52.028;8.916;2023-01-20T09:58:50;18.87;;;11.83;;
6842;SDS011;3460;52.028;8.916;2023-01-20T10:01:21;18.70;;;12.40;;
6842;SDS011;3460;52.028;8.916;2023-01-20T10:03:57;21.40;;;12.20;;
6842;SDS011;3460;52.028;8.916;2023-01-20T10:06:28;22.57;;;12.40;;
6842;SDS011;3460;52.028;8.916;2023-01-20T10:08:59;24.17;;;12.27;;
6842;SDS011;3460;52.028;8.916;2023-01-20T10:11:29;18.53;;;11.70;;
6842;SDS011;3460;52.028;8.916;2023-01-20T10:14:05;20.67;;;12.43;;
6842;SDS011;3460;52.028;8.916;2023-01-20T10:16:39;18.57;;;11.43;;
6842;SDS011;3460;52.028;8.916;2023-01-20T10:19:13;18.73;;;12.27;;
6842;SDS011;3460;52.028;8.916;2023-01-20T10:21:43;16.57;;;11.40;;
6842;SDS011;3460;52.028;8.916;2023-01-20T10:24:16;18.20;;;11.77;;
6842;SDS011;3460;52.028;8.916;2023-01-20T10:26:49;18.40;;;12.23;;
6842;SDS011;3460;52.028;8.916;2023-01-20T10:29:21;20.57;;;11.53;;
6842;SDS011;3460;52.028;8.916;2023-01-20T10:31:56;16.50;;;11.53;;
6842;SDS011;3460;52.028;8.916;2023-01-20T10:34:27;18.50;;;11.53;;
6842;SDS011;3460;52.028;8.916;2023-01-20T10:36:59;19.83;;;11.83;;
6842;SDS011;3460;52.028;8.916;2023-01-20T10:39:32;18.03;;;11.60;;
6842;SDS011;3460;52.028;8.916;2023-01-20T10:42:09;16.70;;;11.83;;
6842;SDS011;3460;52.028;8.916;2023-01-20T10:44:37;17.07;;;11.00;;
6842;SDS011;3460;52.028;8.916;2023-01-20T10:47:07;19.17;;;11.47;;
6842;SDS011;3460;52.028;8.916;2023-01-20T10:49:49;17.73;;;11.60;;
6842;SDS011;3460;52.028;8.916;2023-01-20T10:52:28;17.97;;;11.17;;
6842;SDS011;3460;52.028;8.916;2023-01-20T10:55:06;21.10;;;11.37;;
6842;SDS011;3460;52.028;8.916;2023-01-20T10:57:43;19.03;;;11.27;;
6842;SDS011;3460;52.028;8.916;2023-01-20T11:00:14;18.50;;;10.97;;
6842;SDS011;3460;52.028;8.916;2023-01-20T11:02:45;18.50;;;10.40;;
6842;SDS011;3460;52.028;8.916;2023-01-20T11:05:15;27.13;;;15.80;;
6842;SDS011;3460;52.028;8.916;2023-01-20T11:07:44;17.03;;;10.40;;
6842;SDS011;3460;52.028;8.916;2023-01-20T11:10:12;16.93;;;10.77;;
6842;SDS011;3460;52.028;8.916;2023-01-20T11:12:41;16.43;;;10.03;;
6842;SDS011;3460;52.028;8.916;2023-01-20T11:15:15;16.40;;;10.83;;
6842;SDS011;3460;52.028;8.916;2023-01-20T11:17:43;15.93;;;10.07;;
6842;SDS011;3460;52.028;8.916;2023-01-20T11:20:16;21.10;;;10.77;;
6842;SDS011;3460;52.028;8.916;2023-01-20T11:22:47;17.60;;;9.10;;
6842;SDS011;3460;52.028;8.916;2023-01-20T11:25:22;15.90;;;9.80;;
6842;SDS011;3460;52.028;8.916;2023-01-20T11:27:50;14.53;;;9.37;;
6842;SDS011;3460;52.028;8.916;2023-01-20T11:30:20;12.43;;;9.00;;
6842;SDS011;3460;52.028;8.916;2023-01-20T11:33:05;11.97;;;8.40;;
6842;SDS011;3460;52.028;8.916;2023-01-20T11:35:35;15.10;;;8.97;;
6842;SDS011;3460;52.028;8.916;2023-01-20T11:40:50;13.33;;;7.53;;
6842;SDS011;3460;52.028;8.916;2023-01-20T11:43:26;13.07;;;7.90;;
6842;SDS011;3460;52.028;8.916;2023-01-20T11:46:08;13.10;;;8.10;;
6842;SDS011;3460;52.028;8.916;2023-01-20T11:48:35;12.67;;;7.40;;
6842;SDS011;3460;52.028;8.916;2023-01-20T11:51:04;10.50;;;6.60;;
6842;SDS011;3460;52.028;8.916;2023-01-20T11:53:41;9.37;;;6.43;;
6842;SDS011;3460;52.028;8.916;2023-01-20T11:56:13;9.53;;;6.03;;
6842;SDS011;3460;52.028;8.916;2023-01-20T11:58:49;11.47;;;6.23;;
6842;SDS011;3460;52.028;8.916;2023-01-20T12:01:20;10.87;;;7.00;;
6842;SDS011;3460;52.028;8.916;2023-01-20T12:06:48;11.97;;;6.53;;
6842;SDS011;3460;52.028;8.916;2023-01-20T12:09:19;13.23;;;6.90;;
6842;SDS011;3460;52.028;8.916;2023-01-20T12:11:51;17.50;;;9.07;;
6842;SDS011;3460;52.028;8.916;2023-01-20T12:14:21;14.73;;;8.47;;
6842;SDS011;3460;52.028;8.916;2023-01-20T12:17:10;14.57;;;9.10;;
6842;SDS011;3460;52.028;8.916;2023-01-20T12:20:00;11.13;;;6.63;;
6842;SDS011;3460;52.028;8.916;2023-01-20T12:22:33;13.30;;;8.77;;
6842;SDS011;3460;52.028;8.916;2023-01-20T12:25:14;10.87;;;7.90;;
6842;SDS011;3460;52.028;8.916;2023-01-20T12:27:45;13.93;;;7.87;;
6842;SDS011;3460;52.028;8.916;2023-01-20T12:30:19;12.07;;;7.57;;
6842;SDS011;3460;52.028;8.916;2023-01-20T12:32:57;17.43;;;8.97;;
6842;SDS011;3460;52.028;8.916;2023-01-20T12:35:25;12.63;;;8.63;;
6842;SDS011;3460;52.028;8.916;2023-01-20T12:37:58;15.80;;;9.07;;
6842;SDS011;3460;52.028;8.916;2023-01-20T12:40:31;14.47;;;9.43;;
6842;SDS011;3460;52.028;8.916;2023-01-20T12:43:11;18.57;;;10.47;;
6842;SDS011;3460;52.028;8.916;2023-01-20T12:48:51;15.83;;;10.13;;
6842;SDS011;3460;52.028;8.916;2023-01-20T12:51:28;15.23;;;9.40;;
6842;SDS011;3460;52.028;8.916;2023-01-20T12:54:09;15.80;;;9.20;;
6842;SDS011;3460;52.028;8.916;2023-01-20T12:56:44;16.60;;;9.07;;
6842;SDS011;3460;52.028;8.916;2023-01-20T12:59:22;12.70;;;9.83;;
6842;SDS011;3460;52.028;8.916;2023-01-20T13:02:06;15.93;;;9.67;;
6842;SDS011;3460;52.028;8.916;2023-01-20T13:04:54;15.13;;;10.10;;
6842;SDS011;3460;52.028;8.916;2023-01-20T13:07:51;15.63;;;10.23;;
6842;SDS011;3460;52.028;8.916;2023-01-20T13:10:42;15.93;;;10.27;;
6842;SDS011;3460;52.028;8.916;2023-01-20T13:13:16;16.73;;;10.70;;
6842;SDS011;3460;52.028;8.916;2023-01-20T13:15:51;15.77;;;10.87;;
6842;SDS011;3460;52.028;8.916;2023-01-20T13:18:23;17.27;;;11.20;;
6842;SDS011;3460;52.028;8.916;2023-01-20T13:20:55;17.03;;;11.33;;
6842;SDS011;3460;52.028;8.916;2023-01-20T13:23:23;17.67;;;10.87;;
6842;SDS011;3460;52.028;8.916;2023-01-20T13:25:53;20.10;;;10.97;;
6842;SDS011;3460;52.028;8.916;2023-01-20T13:28:21;14.70;;;10.63;;
6842;SDS011;3460;52.028;8.916;2023-01-20T13:30:51;18.90;;;11.73;;
6842;SDS011;3460;52.028;8.916;2023-01-20T13:33:27;17.57;;;11.53;;
6842;SDS011;3460;52.028;8.916;2023-01-20T13:35:58;17.93;;;11.53;;
6842;SDS011;3460;52.028;8.916;2023-01-20T13:38:25;15.10;;;10.23;;
6842;SDS011;3460;52.028;8.916;2023-01-20T13:40:56;17.77;;;11.13;;
6842;SDS011;3460;52.028;8.916;2023-01-20T13:43:45;18.43;;;10.70;;
6842;SDS011;3460;52.028;8.916;2023-01-20T13:49:13;17.10;;;10.83;;
6842;SDS011;3460;52.028;8.916;2023-01-20T13:51:54;19.33;;;11.23;;
6842;SDS011;3460;52.028;8.916;2023-01-20T13:54:40;21.47;;;11.67;;
6842;SDS011;3460;52.028;8.916;2023-01-20T14:00:15;17.37;;;11.17;;
6842;SDS011;3460;52.028;8.916;2023-01-20T14:02:44;17.13;;;11.00;;
6842;SDS011;3460;52.028;8.916;2023-01-20T14:05:26;16.77;;;10.70;;
6842;SDS011;3460;52.028;8.916;2023-01-20T14:07:55;18.97;;;11.57;;
6842;SDS011;3460;52.028;8.916;2023-01-20T14:10:22;17.97;;;11.73;;
6842;SDS011;3460;52.028;8.916;2023-01-20T14:12:51;17.77;;;11.10;;
6842;SDS011;3460;52.028;8.916;2023-01-20T14:15:28;15.67;;;10.63;;
6842;SDS011;3460;52.028;8.916;2023-01-20T14:17:57;17.90;;;11.90;;
6842;SDS011;3460;52.028;8.916;2023-01-20T14:20:25;21.73;;;11.57;;
6842;SDS011;3460;52.028;8.916;2023-01-20T14:22:53;18.63;;;11.93;;
6842;SDS011;3460;52.028;8.916;2023-01-20T14:25:22;19.67;;;12.50;;
6842;SDS011;3460;52.028;8.916;2023-01-20T14:27:51;20.43;;;12.97;;
6842;SDS011;3460;52.028;8.916;2023-01-20T14:30:19;20.00;;;12.60;;
6842;SDS011;3460;52.028;8.916;2023-01-20T14:32:48;20.20;;;11.80;;
6842;SDS011;3460;52.028;8.916;2023-01-20T14:35:16;18.37;;;11.47;;
6842;SDS011;3460;52.028;8.916;2023-01-20T14:37:48;16.67;;;11.00;;
6842;SDS011;3460;52.028;8.916;2023-01-20T14:40:18;17.67;;;11.13;;
6842;SDS011;3460;52.028;8.916;2023-01-20T14:42:56;18.20;;;11.47;;
6842;SDS011;3460;52.028;8.916;2023-01-20T14:45:24;16.83;;;11.47;;
6842;SDS011;3460;52.028;8.916;2023-01-20T14:47:52;19.47;;;11.97;;
6842;SDS011;3460;52.028;8.916;2023-01-20T14:50:20;17.50;;;11.13;;
6842;SDS011;3460;52.028;8.916;2023-01-20T14:52:47;20.13;;;12.87;;
6842;SDS011;3460;52.028;8.916;2023-01-20T14:58:00;19.17;;;11.03;;
6842;SDS011;3460;52.028;8.916;2023-01-20T15:00:32;19.10;;;11.73;;
6842;SDS011;3460;52.028;8.916;2023-01-20T15:03:03;27.83;;;15.27;;
6842;SDS011;3460;52.028;8.916;2023-01-20T15:05:32;21.63;;;13.23;;
6842;SDS011;3460;52.028;8.916;2023-01-20T15:13:37;24.43;;;13.90;;
6842;SDS011;3460;52.028;8.916;2023-01-20T15:16:05;24.40;;;13.67;;
6842;SDS011;3460;52.028;8.916;2023-01-20T15:18:32;22.93;;;12.33;;
6842;SDS011;3460;52.028;8.916;2023-01-20T15:21:10;21.13;;;12.60;;
6842;SDS011;3460;52.028;8.916;2023-01-20T15:23:42;20.90;;;12.00;;
6842;SDS011;3460;52.028;8.916;2023-01-20T15:26:16;21.53;;;13.07;;
6842;SDS011;3460;52.028;8.916;2023-01-20T15:28:50;18.13;;;12.27;;
6842;SDS011;3460;52.028;8.916;2023-01-20T15:31:17;19.97;;;13.10;;
6842;SDS011;3460;52.028;8.916;2023-01-20T15:33:43;20.43;;;11.90;;
6842;SDS011;3460;52.028;8.916;2023-01-20T15:36:16;20.37;;;11.97;;